Time;durP1;ratioP1;P1;durP2;ratioP2;P2;SDS_P1;SDS_P2;PMS_P1;PMS_P2;Temp;Humidity;BMP_temperature;BMP_pressure;BME280_temperature;BME280_humidity;BME280_pressure;Samples;Min_cycle;Max_cycle;Signal;HPM_P1;HPM_P2
2023/03/01 00:00:13;;;;;;;13.75;8.35;;;;;;;-1.07;60.22;101907.59;10165252;29;20139;-76
2023/03/01 00:05:18;;;;;;;10.98;7.47;;;;;;;-1.01;59.56;101901.38;10164513;29;20385;-76
2023/03/01 00:10:20;;;;;;;16.92;10.10;;;;;;;-0.95;59.56;101901.31;10168580;29;20103;-76
2023/03/01 00:15:23;;;;;;;17.83;10.13;;;;;;;-0.98;59.44;101914.53;10162693;29;20111;-76
2023/03/01 00:20:27;;;;;;;17.92;10.80;;;;;;;-0.89;60.10;101921.50;10164001;29;20076;-76
2023/03/01 00:25:30;;;;;;;19.40;10.18;;;;;;;-0.78;59.88;101909.94;10162556;29;20075;-76
2023/03/01 00:30:34;;;;;;;18.30;9.88;;;;;;;-0.72;59.68;101907.25;10160480;29;20187;-76
2023/03/01 00:35:38;;;;;;;19.45;10.38;;;;;;;-0.66;59.41;101905.44;10160516;29;20064;-76
2023/03/01 00:40:41;;;;;;;19.00;10.10;;;;;;;-0.66;59.11;101911.56;10157506;29;20048;-76
2023/03/01 00:45:44;;;;;;;20.15;11.18;;;;;;;-0.68;59.27;101910.75;10167576;29;20144;-76
2023/03/01 00:50:48;;;;;;;15.82;10.38;;;;;;;-0.62;59.06;101896.59;10167881;29;20044;-78
2023/03/01 00:55:51;;;;;;;16.63;9.48;;;;;;;-0.70;58.43;101898.44;10167854;29;20515;-76
2023/03/01 01:00:53;;;;;;;21.63;9.80;;;;;;;-0.78;58.71;101903.78;10159189;29;20048;-76
2023/03/01 01:05:57;;;;;;;20.15;9.52;;;;;;;-0.80;59.02;101903.78;10161734;29;20491;-76
2023/03/01 01:11:00;;;;;;;15.32;9.50;;;;;;;-0.77;59.14;101901.16;10175100;29;20124;-76
2023/03/01 01:16:04;;;;;;;15.93;10.25;;;;;;;-0.71;59.17;101897.59;10157840;29;20060;-76
2023/03/01 01:21:10;;;;;;;20.23;10.35;;;;;;;-0.75;59.33;101878.25;10178968;29;20480;-76
2023/03/01 01:26:15;;;;;;;18.45;11.50;;;;;;;-0.85;59.21;101875.72;10159739;29;20048;-76
2023/03/01 01:31:19;;;;;;;19.77;11.05;;;;;;;-0.88;59.85;101867.81;10159210;29;20064;-76
2023/03/01 01:36:24;;;;;;;22.30;10.95;;;;;;;-0.97;59.70;101867.03;10169807;29;20048;-76
2023/03/01 01:41:29;;;;;;;19.30;11.10;;;;;;;-1.13;59.81;101864.53;10161226;29;20103;-76
2023/03/01 01:46:34;;;;;;;19.27;10.32;;;;;;;-1.23;60.61;101874.31;10160177;29;20044;-76
2023/03/01 01:51:42;;;;;;;19.08;11.05;;;;;;;-1.27;61.31;101864.66;10161344;29;20040;-76
2023/03/01 01:56:53;;;;;;;15.52;10.23;;;;;;;-1.34;61.46;101863.84;10172005;29;20079;-76
2023/03/01 02:01:56;;;;;;;13.82;9.57;;;;;;;-1.41;61.64;101860.38;10183759;29;20050;-76
2023/03/01 02:07:04;;;;;;;18.48;10.05;;;;;;;-1.38;61.36;101866.53;10167230;29;20079;-76
2023/03/01 02:12:07;;;;;;;19.40;9.82;;;;;;;-1.58;62.15;101850.88;10176708;29;20044;-76
2023/03/01 02:17:11;;;;;;;20.90;11.43;;;;;;;-1.55;63.01;101858.75;10160225;29;20052;-76
2023/03/01 02:22:23;;;;;;;16.27;9.65;;;;;;;-1.56;62.26;101854.34;10167812;29;20120;-76
2023/03/01 02:27:32;;;;;;;;;;;;;;;-1.53;62.09;101852.56;10158462;29;20123;-76
2023/03/01 02:32:36;;;;;;;17.00;11.25;;;;;;;-1.58;61.52;101853.50;10169428;29;19930;-76
2023/03/01 02:37:40;;;;;;;25.35;11.50;;;;;;;-1.75;61.65;101843.94;10166602;29;20490;-76
2023/03/01 02:42:51;;;;;;;19.63;11.10;;;;;;;-1.76;61.79;101852.72;10165675;29;20040;-76
2023/03/01 02:47:57;;;;;;;17.40;11.27;;;;;;;-1.78;62.33;101841.34;10170066;29;20072;-76
2023/03/01 02:53:08;;;;;;;20.17;11.65;;;;;;;-1.74;62.31;101844.81;10163717;29;20428;-76
2023/03/01 02:58:12;;;;;;;20.63;11.63;;;;;;;-1.74;62.30;101842.19;10163274;29;20044;-75
2023/03/01 03:03:17;;;;;;;18.13;11.05;;;;;;;-1.73;62.19;101826.34;10164455;29;20092;-75
2023/03/01 03:08:23;;;;;;;28.23;12.20;;;;;;;-1.80;62.14;101827.28;10164280;29;20519;-75
2023/03/01 03:13:28;;;;;;;18.95;11.52;;;;;;;-1.91;62.60;101816.81;10164673;29;20099;-76
2023/03/01 03:18:32;;;;;;;22.85;12.48;;;;;;;-1.98;62.89;101825.63;10165098;29;20052;-75
2023/03/01 03:23:35;;;;;;;22.20;12.45;;;;;;;-2.14;63.06;101822.25;10168968;29;20128;-76
2023/03/01 03:28:39;;;;;;;21.02;12.52;;;;;;;-2.50;64.26;101815.38;10165429;29;20044;-76
2023/03/01 03:33:44;;;;;;;18.42;11.77;;;;;;;-2.54;64.92;101805.75;10169441;29;20044;-76
2023/03/01 03:38:48;;;;;;;21.88;12.43;;;;;;;-2.37;64.65;101800.41;10163526;29;20124;-76
2023/03/01 03:43:51;;;;;;;18.23;11.77;;;;;;;-2.42;64.44;101803.06;10161680;29;20075;-76
2023/03/01 03:48:55;;;;;;;19.92;12.02;;;;;;;-2.43;64.55;101803.06;10164975;29;20063;-76
2023/03/01 03:53:58;;;;;;;18.25;12.00;;;;;;;-2.48;64.83;101795.19;10157350;29;20044;-76
2023/03/01 03:59:01;;;;;;;21.77;12.02;;;;;;;-2.50;65.40;101786.41;10161326;29;20044;-76
2023/03/01 04:04:07;;;;;;;21.83;12.25;;;;;;;-2.62;65.65;101784.72;10160411;29;20135;-75
2023/03/01 04:09:10;;;;;;;19.67;12.50;;;;;;;-2.83;65.87;101772.50;10159150;29;20068;-75
2023/03/01 04:14:13;;;;;;;21.75;12.32;;;;;;;-2.82;65.95;101783.94;10176871;23;20080;-75
2023/03/01 04:19:17;;;;;;;22.02;12.75;;;;;;;-2.73;65.96;101779.50;10155635;29;20127;-75
2023/03/01 04:24:20;;;;;;;24.42;12.93;;;;;;;-2.59;65.59;101782.06;10164602;29;20470;-75
2023/03/01 04:29:23;;;;;;;21.05;11.73;;;;;;;-2.56;65.71;101778.56;10158200;29;20080;-77
2023/03/01 04:34:27;;;;;;;24.27;13.25;;;;;;;-2.56;66.00;101784.69;10160118;29;20032;-76
2023/03/01 04:39:30;;;;;;;25.85;12.32;;;;;;;-2.56;65.75;101786.44;10159440;29;20087;-76
2023/03/01 04:44:33;;;;;;;23.13;13.15;;;;;;;-2.59;65.67;101787.34;10153439;29;20064;-75
2023/03/01 04:49:37;;;;;;;27.30;14.30;;;;;;;-2.73;65.60;101789.16;10164873;29;20115;-75
2023/03/01 04:54:40;;;;;;;30.30;14.52;;;;;;;-2.72;65.78;101783.00;10157237;29;20123;-77
2023/03/01 04:59:43;;;;;;;25.13;13.38;;;;;;;-2.83;65.53;101785.66;10161287;29;20080;-77
2023/03/01 05:04:47;;;;;;;20.33;13.02;;;;;;;-3.01;65.59;101786.59;10161052;29;20044;-77
2023/03/01 05:09:50;;;;;;;23.38;13.45;;;;;;;-3.12;65.65;101787.53;10156667;29;20044;-77
2023/03/01 05:14:56;;;;;;;26.25;12.23;;;;;;;-3.00;65.62;101785.72;10161617;29;20567;-77
2023/03/01 05:20:00;;;;;;;19.95;12.07;;;;;;;-2.96;65.40;101784.84;10153444;29;20068;-77
2023/03/01 05:25:04;;;;;;;22.35;12.85;;;;;;;-2.97;65.34;101769.94;10163449;29;20064;-76
2023/03/01 05:30:14;;;;;;;23.08;13.10;;;;;;;-2.97;65.43;101783.06;10164428;29;20088;-76
2023/03/01 05:35:18;;;;;;;21.38;12.95;;;;;;;-3.02;64.81;101782.22;10164945;29;20106;-76
2023/03/01 05:40:23;;;;;;;28.48;13.23;;;;;;;-3.13;64.81;101775.25;10167403;29;20108;-76
2023/03/01 05:45:28;;;;;;;26.25;13.23;;;;;;;-3.13;64.65;101781.34;10160115;29;20523;-75
2023/03/01 05:50:34;;;;;;;23.95;12.57;;;;;;;-3.22;64.38;101774.38;10171236;29;20579;-75
2023/03/01 05:55:38;;;;;;;22.90;13.25;;;;;;;-3.27;64.27;101773.50;10162425;29;20042;-76
2023/03/01 06:00:42;;;;;;;36.75;13.35;;;;;;;-3.30;64.35;101777.91;10166126;29;20091;-76
2023/03/01 06:05:46;;;;;;;28.25;13.20;;;;;;;-3.35;64.65;101782.28;10165975;29;20127;-76
2023/03/01 06:10:49;;;;;;;28.10;13.93;;;;;;;-3.13;65.11;101780.50;10161199;29;20051;-76
2023/03/01 06:15:52;;;;;;;28.10;14.13;;;;;;;-3.07;64.76;101789.25;10169075;29;20088;-77
2023/03/01 06:20:57;;;;;;;27.35;14.88;;;;;;;-2.93;65.07;101788.31;10159727;29;20051;-75
2023/03/01 06:26:00;;;;;;;26.58;15.43;;;;;;;-2.87;65.01;101796.22;10170247;29;20472;-76
2023/03/01 06:31:03;;;;;;;31.20;14.77;;;;;;;-2.77;64.77;101787.41;10166773;29;20151;-75
2023/03/01 06:36:09;;;;;;;25.88;14.38;;;;;;;-2.59;64.20;101787.34;10166131;29;20040;-76
2023/03/01 06:41:12;;;;;;;25.00;14.45;;;;;;;-2.38;63.92;101796.91;10164446;29;20566;-76
2023/03/01 06:46:15;;;;;;;29.15;14.10;;;;;;;-2.16;63.04;101799.44;10161842;29;20139;-76
2023/03/01 06:51:20;;;;;;;25.58;14.45;;;;;;;-2.10;62.29;101779.19;10164920;29;20123;-76
2023/03/01 06:56:22;;;;;;;26.67;13.90;;;;;;;-2.01;62.73;101774.75;10160410;29;20135;-76
2023/03/01 07:01:25;;;;;;;26.00;16.17;;;;;;;-2.12;64.69;101777.44;10167370;29;20495;-75
2023/03/01 07:06:30;;;;;;;22.48;18.70;;;;;;;-1.44;64.67;101764.63;10164057;29;20489;-77
2023/03/01 07:11:33;;;;;;;18.30;10.30;;;;;;;-0.78;62.13;101769.22;10160841;29;20045;-78
2023/03/01 07:16:36;;;;;;;20.13;10.77;;;;;;;-0.14;60.28;101765.75;10169337;29;20044;-77
2023/03/01 07:21:40;;;;;;;19.55;10.80;;;;;;;0.20;59.19;101767.00;10161582;29;20050;-77
2023/03/01 07:26:43;;;;;;;20.45;12.50;;;;;;;0.70;57.57;101755.53;10173463;29;20102;-77
2023/03/01 07:31:46;;;;;;;21.88;13.23;;;;;;;0.92;56.44;101734.84;10161479;29;20131;-77
2023/03/01 07:36:50;;;;;;;27.00;15.15;;;;;;;1.11;55.73;101735.38;10161619;29;20040;-76
2023/03/01 07:41:53;;;;;;;30.27;15.50;;;;;;;1.33;55.24;101741.09;10127621;29;20142;-77
2023/03/01 07:46:58;;;;;;;26.85;15.15;;;;;;;1.42;54.68;101738.22;10123523;29;20052;-76
2023/03/01 07:52:02;;;;;;;30.70;15.02;;;;;;;1.49;54.24;101742.50;10126961;29;20109;-76
2023/03/01 07:57:04;;;;;;;22.25;13.63;;;;;;;1.56;54.09;101739.72;10118327;29;21182;-75
2023/03/01 08:02:09;;;;;;;26.83;14.32;;;;;;;1.58;53.78;101749.38;10126332;29;20151;-76
2023/03/01 08:07:13;;;;;;;21.55;13.13;;;;;;;1.90;53.85;101751.31;10123157;29;20058;-77
2023/03/01 08:12:16;;;;;;;25.52;14.27;;;;;;;2.23;53.36;101746.09;10124193;29;20055;-77
2023/03/01 08:17:19;;;;;;;19.83;11.95;;;;;;;2.14;52.90;101741.91;10124743;29;20052;-77
2023/03/01 08:22:23;;;;;;;28.20;13.00;;;;;;;2.67;52.82;101736.19;10114108;29;20053;-77
2023/03/01 08:27:26;;;;;;;21.15;12.95;;;;;;;1.68;53.67;101732.38;10127822;29;20056;-77
2023/03/01 08:32:29;;;;;;;22.90;13.57;;;;;;;1.92;54.98;101728.31;10119079;29;20180;-76
2023/03/01 08:37:33;;;;;;;22.58;13.07;;;;;;;2.24;53.14;101725.75;10119382;29;20414;-76
2023/03/01 08:42:36;;;;;;;21.88;13.50;;;;;;;2.88;52.16;101717.91;10123715;29;20056;-76
2023/03/01 08:47:38;;;;;;;24.33;13.63;;;;;;;3.79;51.21;101719.66;10117274;29;20053;-77
2023/03/01 08:52:43;;;;;;;21.25;13.98;;;;;;;4.78;49.21;101706.59;10125984;29;20061;-76
2023/03/01 08:57:46;;;;;;;20.70;13.18;;;;;;;5.12;47.88;101706.25;10117921;29;20508;-76
2023/03/01 09:02:48;;;;;;;21.48;12.90;;;;;;;5.60;46.47;101717.78;10125868;29;20412;-76
2023/03/01 09:07:52;;;;;;;20.33;12.95;;;;;;;5.90;45.84;101711.22;10137818;29;20419;-77
2023/03/01 09:12:55;;;;;;;22.50;13.65;;;;;;;5.24;46.14;101721.78;10135873;29;20127;-78
2023/03/01 09:17:58;;;;;;;27.60;13.98;;;;;;;5.86;46.31;101720.25;10132473;29;20130;-78
2023/03/01 09:23:03;;;;;;;22.10;13.52;;;;;;;4.81;46.97;101709.13;10124680;29;20071;-77
2023/03/01 09:28:06;;;;;;;20.60;12.35;;;;;;;5.46;46.49;101707.66;10140291;29;20195;-78
2023/03/01 09:33:14;;;;;;;23.05;11.77;;;;;;;4.20;47.43;101701.50;10144246;29;20048;-77
2023/03/01 09:38:18;;;;;;;21.23;12.88;;;;;;;6.02;46.78;101699.16;10132788;29;20052;-78
2023/03/01 09:43:27;;;;;;;20.35;12.63;;;;;;;6.84;44.04;101680.53;10139764;29;20135;-78
2023/03/01 09:48:38;;;;;;;16.33;8.52;;;;;;;7.55;39.53;101677.31;10156517;29;20052;-78
2023/03/01 09:53:42;;;;;;;15.52;9.20;;;;;;;7.89;38.52;101671.16;10149467;29;20131;-78
2023/03/01 09:58:52;;;;;;;14.55;8.95;;;;;;;8.35;37.68;101666.19;10145863;29;20141;-78
2023/03/01 10:04:06;;;;;;;13.35;9.13;;;;;;;8.68;36.61;101662.72;10133676;29;20071;-78
2023/03/01 10:09:14;;;;;;;14.32;9.05;;;;;;;8.60;36.72;101663.13;10133568;29;20052;-78
2023/03/01 10:14:29;;;;;;;13.57;8.13;;;;;;;8.32;37.05;101663.66;10129300;29;20063;-78
2023/03/01 10:19:37;;;;;;;14.50;7.38;;;;;;;8.61;36.78;101651.44;10129638;29;20052;-76
2023/03/01 10:24:41;;;;;;;11.18;6.97;;;;;;;8.71;36.14;101657.22;10142574;29;20052;-76
2023/03/01 10:29:49;;;;;;;12.98;7.28;;;;;;;9.49;35.31;101655.63;10148720;29;20048;-76
2023/03/01 10:34:52;;;;;;;13.70;7.97;;;;;;;9.64;34.84;101653.88;10153846;29;20048;-76
2023/03/01 10:39:59;;;;;;;14.30;8.32;;;;;;;9.56;35.01;101643.56;10154545;29;20102;-76
2023/03/01 10:45:27;;;;;;;13.38;7.25;;;;;;;9.44;35.00;101641.59;10149457;29;20075;-76
2023/03/01 10:50:30;;;;;;;14.15;7.93;;;;;;;9.81;34.31;101647.53;10152261;29;20060;-77
2023/03/01 10:55:37;;;;;;;12.38;6.68;;;;;;;10.36;33.63;101645.16;10131238;29;20424;-76
2023/03/01 11:00:48;;;;;;;10.73;7.03;;;;;;;10.37;32.73;101633.47;10126004;29;20423;-78
2023/03/01 11:06:03;;;;;;;9.73;6.30;;;;;;;11.60;32.02;101636.56;10133042;29;20052;-78
2023/03/01 11:11:17;;;;;;;8.88;5.70;;;;;;;12.43;30.13;101628.28;10132554;29;20054;-78
2023/03/01 11:16:29;;;;;;;11.13;6.15;;;;;;;13.33;30.20;101626.38;10140376;29;20464;-78
2023/03/01 11:21:35;;;;;;;12.25;5.95;;;;;;;13.93;28.83;101619.25;10153237;29;21608;-78
2023/03/01 11:26:44;;;;;;;9.93;6.63;;;;;;;14.48;27.70;101617.75;10156613;29;20075;-78
2023/03/01 11:31:48;;;;;;;9.85;6.20;;;;;;;14.31;28.02;101608.19;10151604;29;20047;-78
2023/03/01 11:37:02;;;;;;;7.93;5.75;;;;;;;14.46;27.88;101606.19;10133582;29;20577;-78
2023/03/01 11:42:13;;;;;;;9.45;5.97;;;;;;;14.01;27.97;101606.00;10136739;29;20047;-78
2023/03/01 11:47:33;;;;;;;9.95;5.75;;;;;;;13.93;28.08;101609.31;10128575;29;20106;-78
2023/03/01 11:52:49;;;;;;;7.63;5.65;;;;;;;14.79;27.76;101596.41;10140333;29;20088;-78
2023/03/01 11:58:23;;;;;;;8.82;5.78;;;;;;;15.20;26.91;101586.78;10130397;29;20055;-78
2023/03/01 12:03:32;;;;;;;6.88;5.68;;;;;;;14.86;26.66;101591.34;10129447;29;20139;-78
2023/03/01 12:08:38;;;;;;;8.07;5.93;;;;;;;13.82;27.44;101589.50;10136779;29;20504;-78
2023/03/01 12:14:02;;;;;;;7.82;5.40;;;;;;;13.96;27.22;101583.91;10130607;29;20058;-78
2023/03/01 12:19:18;;;;;;;7.43;5.55;;;;;;;13.80;26.68;101568.00;10132098;29;20610;-78
2023/03/01 12:24:42;;;;;;;9.98;5.82;;;;;;;14.32;26.24;101555.88;10138176;29;20597;-78
2023/03/01 12:29:53;;;;;;;6.93;5.28;;;;;;;14.36;26.94;101549.22;10132772;29;20049;-78
2023/03/01 12:35:24;;;;;;;9.63;5.95;;;;;;;13.26;27.04;101525.25;10126948;29;20059;-78
2023/03/01 12:40:44;;;;;;;8.50;5.63;;;;;;;12.66;29.44;101518.00;10125946;29;20526;-78
2023/03/01 12:46:02;;;;;;;7.35;5.30;;;;;;;13.55;28.08;101511.44;10129588;29;20504;-78
2023/03/01 12:51:10;;;;;;;12.48;5.75;;;;;;;13.98;26.64;101509.00;10127081;29;20044;-78
2023/03/01 12:56:16;;;;;;;8.30;5.18;;;;;;;13.39;27.59;101500.97;10133562;29;20500;-78
2023/03/01 13:01:33;;;;;;;7.03;5.07;;;;;;;14.04;27.21;101499.56;10128825;29;20056;-78
2023/03/01 13:06:42;;;;;;;7.15;5.13;;;;;;;15.66;25.62;101485.47;10130772;29;20047;-78
2023/03/01 13:11:45;;;;;;;8.15;5.80;;;;;;;17.76;23.63;101474.78;10131786;29;20145;-78
2023/03/01 13:16:51;;;;;;;8.02;5.43;;;;;;;18.18;23.30;101469.00;10131261;29;20111;-76
2023/03/01 13:21:55;;;;;;;8.35;5.68;;;;;;;19.07;22.44;101459.44;10119227;29;20579;-77
2023/03/01 13:27:28;;;;;;;7.32;5.68;;;;;;;19.09;22.24;101460.09;10118837;29;20434;-77
2023/03/01 13:32:34;;;;;;;8.38;5.00;;;;;;;19.13;21.89;101461.53;10132434;29;20195;-77
2023/03/01 13:37:47;;;;;;;9.15;5.13;;;;;;;17.96;22.11;101453.00;10122083;29;20052;-77
2023/03/01 13:42:50;;;;;;;5.88;4.80;;;;;;;17.40;23.31;101446.50;10126528;29;20703;-77
2023/03/01 13:48:16;;;;;;;7.22;5.10;;;;;;;16.44;24.11;101445.31;10128798;29;20507;-77
2023/03/01 13:53:22;;;;;;;8.35;5.18;;;;;;;16.32;24.21;101441.84;10134278;29;20468;-77
2023/03/01 13:58:27;;;;;;;8.50;5.03;;;;;;;15.66;25.19;101445.72;10134910;29;20135;-76
2023/03/01 14:03:33;;;;;;;9.45;4.88;;;;;;;14.98;24.98;101436.16;10132899;29;20195;-77
2023/03/01 14:08:37;;;;;;;6.43;4.78;;;;;;;14.51;25.76;101436.38;10136990;29;20059;-78
2023/03/01 14:13:52;;;;;;;6.80;5.20;;;;;;;13.96;25.62;101429.06;10133452;29;20060;-78
2023/03/01 14:19:10;;;;;;;9.13;5.80;;;;;;;13.25;26.78;101424.56;10140453;29;20419;-74
2023/03/01 14:24:19;;;;;;;4.82;3.70;;;;;;;13.08;26.84;101426.81;10129436;29;20063;-75
2023/03/01 14:29:27;;;;;;;6.63;3.95;;;;;;;12.96;26.99;101418.66;10125962;29;20048;-75
2023/03/01 14:34:31;;;;;;;4.95;4.00;;;;;;;12.95;26.77;101414.25;10132647;29;20054;-74
2023/03/01 14:39:34;;;;;;;5.15;3.50;;;;;;;12.60;27.16;101406.94;10121397;29;20648;-75
2023/03/01 14:44:37;;;;;;;7.82;3.83;;;;;;;12.54;27.12;101402.00;10131966;29;20051;-75
2023/03/01 14:49:42;;;;;;;8.18;3.70;;;;;;;12.27;27.60;101398.59;10120920;29;20516;-74
2023/03/01 14:54:49;;;;;;;5.63;3.60;;;;;;;12.00;27.51;101394.22;10130865;29;20067;-74
2023/03/01 14:59:54;;;;;;;7.68;4.22;;;;;;;12.02;27.90;101396.81;10130523;29;20252;-74
2023/03/01 15:05:01;;;;;;;5.38;3.58;;;;;;;11.94;27.90;101395.50;10131077;29;20063;-75
2023/03/01 15:10:07;;;;;;;6.18;3.63;;;;;;;11.10;29.20;101387.84;10133263;29;20055;-76
2023/03/01 15:15:34;;;;;;;5.95;3.90;;;;;;;11.35;29.24;101379.00;10135638;29;20052;-76
2023/03/01 15:20:39;;;;;;;7.18;4.43;;;;;;;11.13;29.70;101362.59;10135239;29;20052;-75
2023/03/01 15:25:45;;;;;;;5.72;3.70;;;;;;;10.65;30.50;101367.59;10137427;29;21270;-76
2023/03/01 15:30:55;;;;;;;6.28;3.38;;;;;;;10.77;30.72;101359.56;10136359;29;20048;-76
2023/03/01 15:36:01;;;;;;;4.72;3.40;;;;;;;11.03;30.51;101356.97;10136456;29;20055;-76
2023/03/01 15:41:06;;;;;;;6.95;3.85;;;;;;;10.44;31.04;101362.66;10135197;29;20048;-76
2023/03/01 15:46:23;;;;;;;5.85;3.72;;;;;;;10.17;31.76;101360.81;10135397;29;20044;-78
2023/03/01 15:51:34;;;;;;;7.13;4.00;;;;;;;9.70;32.25;101356.53;10137714;29;20095;-78
2023/03/01 15:56:36;;;;;;;7.28;3.95;;;;;;;8.97;32.85;101358.34;10138971;29;20531;-77
2023/03/01 16:01:39;;;;;;;;;;;;;;;8.19;34.33;101358.28;10144784;29;20052;-78
2023/03/01 16:06:43;;;;;;;8.10;4.72;;;;;;;8.11;34.97;101358.69;10144029;29;19927;-77
2023/03/01 16:11:46;;;;;;;6.30;3.97;;;;;;;8.02;35.76;101361.03;10154638;29;20062;-78
2023/03/01 16:16:49;;;;;;;6.40;4.20;;;;;;;8.17;35.19;101355.69;10139356;29;20063;-77
2023/03/01 16:21:53;;;;;;;6.10;4.07;;;;;;;7.84;35.45;101357.53;10136938;29;20059;-77
2023/03/01 16:26:56;;;;;;;6.95;3.97;;;;;;;7.77;35.83;101351.66;10128140;29;20048;-77
2023/03/01 16:32:01;;;;;;;4.72;3.25;;;;;;;7.55;36.56;101359.97;10093094;29;20721;-77
2023/03/01 16:37:05;;;;;;;7.15;3.88;;;;;;;7.46;36.80;101353.28;10120365;29;20499;-78
2023/03/01 16:42:08;;;;;;;6.00;4.03;;;;;;;7.24;37.36;101356.22;10094090;29;20064;-77
2023/03/01 16:47:11;;;;;;;7.45;4.40;;;;;;;6.84;37.92;101347.53;10096522;29;20139;-77
2023/03/01 16:52:15;;;;;;;5.32;4.30;;;;;;;6.44;38.55;101347.75;10103079;29;20052;-77
2023/03/01 16:57:17;;;;;;;6.93;4.40;;;;;;;5.98;39.54;101350.81;10119366;29;20772;-77
2023/03/01 17:02:23;;;;;;;6.60;4.22;;;;;;;5.73;39.93;101359.03;10113273;29;20060;-77
2023/03/01 17:07:27;;;;;;;10.65;4.55;;;;;;;5.59;40.34;101350.81;10102688;29;20053;-77
2023/03/01 17:12:31;;;;;;;9.18;5.10;;;;;;;5.45;40.65;101364.75;10126281;29;20089;-78
2023/03/01 17:17:35;;;;;;;6.43;4.47;;;;;;;5.27;40.91;101367.31;10134884;29;20052;-77
2023/03/01 17:22:39;;;;;;;10.27;4.90;;;;;;;5.08;41.40;101371.69;10127487;29;20076;-77
2023/03/01 17:27:42;;;;;;;11.82;6.15;;;;;;;4.98;41.74;101383.63;10122628;29;20059;-78
2023/03/01 17:32:45;;;;;;;14.88;7.20;;;;;;;4.91;41.71;101382.13;10117750;29;20044;-77
2023/03/01 17:37:50;;;;;;;12.27;5.85;;;;;;;4.82;42.02;101391.38;10134702;29;20527;-76
2023/03/01 17:42:53;;;;;;;13.05;7.25;;;;;;;4.79;42.08;101405.66;10141758;29;20059;-77
2023/03/01 17:47:55;;;;;;;11.35;7.65;;;;;;;4.74;42.34;101399.66;10138023;29;20107;-77
2023/03/01 17:53:00;;;;;;;12.05;6.78;;;;;;;4.62;42.47;101395.72;10129521;29;20048;-77
2023/03/01 17:58:03;;;;;;;9.23;6.80;;;;;;;4.47;42.74;101406.97;10140223;29;20051;-77
2023/03/01 18:03:07;;;;;;;21.85;11.18;;;;;;;4.21;43.40;101401.78;10128272;29;20043;-77
2023/03/01 18:08:11;;;;;;;16.17;8.75;;;;;;;4.00;43.72;101414.97;10162746;29;20535;-76
2023/03/01 18:13:14;;;;;;;13.70;7.28;;;;;;;4.00;43.79;101404.31;10157849;29;20059;-77
2023/03/01 18:18:17;;;;;;;15.55;8.50;;;;;;;3.90;43.92;101405.59;10154248;29;20661;-77
2023/03/01 18:23:21;;;;;;;18.05;8.45;;;;;;;3.89;44.09;101403.84;10161266;29;20052;-77
2023/03/01 18:28:25;;;;;;;17.67;8.70;;;;;;;3.89;43.90;101418.00;10164431;29;20055;-78
2023/03/01 18:33:28;;;;;;;12.90;8.25;;;;;;;3.84;44.25;101403.16;10162000;29;20055;-78
2023/03/01 18:38:33;;;;;;;16.88;8.93;;;;;;;3.72;44.46;101397.38;10158575;29;21549;-77
2023/03/01 18:43:35;;;;;;;20.85;11.05;;;;;;;3.57;44.77;101402.38;10135910;29;20185;-76
2023/03/01 18:48:38;;;;;;;21.90;12.05;;;;;;;3.56;44.83;101395.31;10128955;29;20064;-77
2023/03/01 18:53:43;;;;;;;25.70;14.15;;;;;;;3.51;44.85;101392.81;10106219;29;21498;-78
2023/03/01 18:58:46;;;;;;;34.65;15.68;;;;;;;3.41;44.96;101394.09;10105945;29;20067;-77
2023/03/01 19:03:49;;;;;;;30.30;17.55;;;;;;;3.33;45.41;101386.38;10135671;29;20575;-75
2023/03/01 19:08:54;;;;;;;30.65;18.25;;;;;;;3.27;45.60;101383.94;10132873;29;20071;-76
2023/03/01 19:13:57;;;;;;;30.10;16.20;;;;;;;3.22;45.85;101386.75;10123806;29;20704;-78
2023/03/01 19:19:01;;;;;;;26.38;13.70;;;;;;;3.18;45.72;101402.81;10112741;29;20052;-76
2023/03/01 19:24:06;;;;;;;23.17;12.50;;;;;;;3.10;46.03;101399.56;10132902;29;20055;-77
2023/03/01 19:29:10;;;;;;;23.88;13.15;;;;;;;2.98;46.12;101398.19;10122193;29;20075;-77
2023/03/01 19:34:13;;;;;;;18.63;9.23;;;;;;;2.95;46.20;101385.91;10119327;29;20564;-77
2023/03/01 19:39:17;;;;;;;19.77;10.57;;;;;;;2.91;45.99;101383.38;10121958;29;20054;-78
2023/03/01 19:44:23;;;;;;;16.42;8.43;;;;;;;2.95;45.66;101393.84;10124039;29;20151;-78
2023/03/01 19:49:28;;;;;;;13.80;7.53;;;;;;;3.01;46.00;101392.78;10119117;29;20148;-77
2023/03/01 19:54:32;;;;;;;12.90;7.18;;;;;;;2.95;46.03;101395.66;10116431;29;20075;-77
2023/03/01 19:59:35;;;;;;;17.00;8.10;;;;;;;2.89;46.05;101390.56;10134158;29;21138;-77
2023/03/01 20:04:38;;;;;;;18.73;10.88;;;;;;;2.92;46.44;101387.78;10165123;29;20664;-77
2023/03/01 20:09:42;;;;;;;17.10;9.23;;;;;;;2.94;46.15;101397.44;10153645;29;20507;-77
2023/03/01 20:14:47;;;;;;;20.63;8.00;;;;;;;2.92;46.26;101391.31;10162291;29;20051;-78
2023/03/01 20:19:50;;;;;;;12.20;7.45;;;;;;;2.79;46.15;101389.97;10162320;29;20512;-77
2023/03/01 20:24:54;;;;;;;16.58;8.70;;;;;;;2.63;47.06;101392.25;10156279;29;20122;-77
2023/03/01 20:29:57;;;;;;;17.58;11.10;;;;;;;2.48;47.12;101384.75;10157188;29;20048;-77
2023/03/01 20:35:01;;;;;;;21.52;11.95;;;;;;;2.37;47.52;101388.59;10158099;28;20052;-77
2023/03/01 20:40:08;;;;;;;21.15;11.55;;;;;;;2.34;47.91;101388.69;10166170;29;20043;-78
2023/03/01 20:45:11;;;;;;;17.38;9.90;;;;;;;2.24;47.78;101392.53;10155427;29;20519;-78
2023/03/01 20:50:14;;;;;;;18.65;10.27;;;;;;;2.18;48.24;101392.72;10157386;29;20055;-78
2023/03/01 20:55:19;;;;;;;21.38;10.25;;;;;;;2.15;48.15;101391.03;10154505;29;20054;-77
2023/03/01 21:00:22;;;;;;;13.57;7.60;;;;;;;2.03;48.33;101387.88;10153953;29;20190;-77
2023/03/01 21:05:24;;;;;;;13.60;8.82;;;;;;;1.98;48.46;101392.47;10151153;29;20084;-77
2023/03/01 21:10:29;;;;;;;18.15;9.65;;;;;;;1.89;48.78;101391.81;10158064;29;20044;-77
2023/03/01 21:15:32;;;;;;;16.50;7.47;;;;;;;1.77;49.29;101392.16;10165089;29;20056;-77
2023/03/01 21:20:41;;;;;;;13.00;8.00;;;;;;;1.78;48.85;101387.72;10149601;29;20066;-78
2023/03/01 21:25:45;;;;;;;16.48;8.80;;;;;;;1.76;49.29;101397.50;10160417;29;20051;-76
2023/03/01 21:30:48;;;;;;;15.60;8.82;;;;;;;1.74;49.09;101394.91;10174540;29;20138;-77
2023/03/01 21:35:51;;;;;;;15.98;8.57;;;;;;;1.73;49.39;101379.91;10157489;29;20052;-77
2023/03/01 21:40:55;;;;;;;13.43;7.80;;;;;;;1.72;49.45;101381.69;10159106;29;20060;-76
2023/03/01 21:46:01;;;;;;;14.38;8.25;;;;;;;1.61;49.38;101388.19;10173068;29;20054;-77
2023/03/01 21:51:04;;;;;;;11.48;7.13;;;;;;;1.61;49.49;101373.16;10158902;29;21200;-76
2023/03/01 21:56:10;;;;;;;12.75;7.70;;;;;;;1.67;49.66;101364.19;10141230;29;20059;-77
2023/03/01 22:06:39;;;;;;;10.35;6.22;;;;;;;1.56;49.75;101364.47;10175640;29;20048;-78
2023/03/01 22:11:45;;;;;;;15.18;8.02;;;;;;;1.55;50.17;101359.25;10186408;29;20047;-80
2023/03/01 22:16:50;;;;;;;12.30;6.80;;;;;;;1.43;50.36;101350.72;10181969;29;20418;-80
2023/03/01 22:21:53;;;;;;;14.18;7.45;;;;;;;1.35;50.63;101355.38;10196506;29;20096;-79
2023/03/01 22:26:57;;;;;;;12.95;6.80;;;;;;;1.36;50.95;101365.03;10182762;29;20072;-79
2023/03/01 22:32:00;;;;;;;13.75;6.75;;;;;;;1.30;50.73;101359.91;10173974;29;20411;-80
2023/03/01 22:37:03;;;;;;;12.65;6.65;;;;;;;1.26;51.18;101360.88;10181228;29;20104;-79
2023/03/01 22:42:08;;;;;;;17.08;6.75;;;;;;;1.37;50.61;101364.16;10173644;29;20051;-80
2023/03/01 22:47:11;;;;;;;12.98;6.72;;;;;;;1.41;50.81;101355.19;10182595;29;20083;-80
2023/03/01 22:52:14;;;;;;;11.63;6.75;;;;;;;1.42;50.58;101348.09;10201736;29;20059;-81
2023/03/01 22:57:18;;;;;;;12.05;6.93;;;;;;;1.35;50.56;101334.19;10180964;29;20044;-80
2023/03/01 23:02:22;;;;;;;17.15;6.75;;;;;;;1.27;50.96;101331.75;10194451;29;20048;-79
2023/03/01 23:07:25;;;;;;;11.45;6.70;;;;;;;1.13;50.95;101325.97;10176519;29;20051;-80
2023/03/01 23:12:29;;;;;;;11.93;6.93;;;;;;;0.92;51.73;101337.09;10180066;29;20099;-80
2023/03/01 23:17:32;;;;;;;16.27;8.00;;;;;;;0.64;53.50;101331.66;10178537;29;20044;-80